首页
METAR-TAF:

METAR-TAF

机场 :

韦斯卡, 西班牙

纬度: 42-04-32N, 经度: 0-18-58W, 海拔: 539米

当前天气观测

该预报发布于27分钟前的01:00 UTC
风速7节,风向东北
温度 20°C
湿度 49%
气压 1016 hPa
能见度10公里或以上
1500米以下无云,无积雨云

METAR: LEHC 180100Z AUTO 05007KT CAVOK 20/09 Q1016

时间: 03:27 (01:27 UTC)

预报

该预报发布于11小时和27分钟前的14:00 UTC
预报有效从17日的 15点(UTC)到 18日的 15点(UTC)
风速5节,风向
能见度10公里或以上
少量云层高于6000英尺
成为
从 17日的 18点(UTC)到 17日的 20点(UTC)
风速14节,风向
成为
从 18日的 10点(UTC)到 18日的 12点(UTC)
风速10节,风向南转南东

TAF: LEHC 171400Z 1715/1815 09005KT 9999 FEW060 TX34/1814Z TN19/1805Z BECMG 1718/1720 10014KT BECMG 1810/1812 15010KT

超过4000个机场的气象观测和天气预报(METAR&TAF报告)。

可查询的气象台以黄色和红色小点在地图上表示。

将鼠标移到小点上方,可查看气象台名称。

然后点击查看天气观测和预报。

如需切换地图:点击带黑十字的绿色按钮放大地图;点击带横线的绿色按钮缩小地图;或者点击绿色箭头查看邻近地区的地图。


METAR-TAF: